SVYA4: Illinois River nr Savoy AR

                                SHEF ID:       SVYA4     Illinois River at Savoy, AR
STATION TYPE:

STAGE RIV-FLOW BAT-LOAD
ft cfs volt
Ccp-Rev Ccp-Rev Ccp-Rev
(America/Chicago)
04/28 00:00 4.02 421 12.81
04/28 01:00 3.99 411 12.73
04/28 02:00 3.95 397 12.73
04/28 03:00 3.94 394 12.65
04/28 04:00 3.90 381 12.65
04/28 05:00 3.88 375 12.65
04/28 06:00 3.85 365 12.65
04/28 07:00 3.81 353 12.65
04/28 08:00 3.78 344 12.65
04/28 09:00 3.77 341 12.81
04/28 10:00 3.74 332 13.29
04/28 11:00 3.72 326 12.81
04/28 12:00 3.70 320 13.68
04/28 13:00 3.71 323 13.21
04/28 14:00 3.71 323 13.92
04/28 15:00 3.71 323 13.60
04/28 16:00 3.74 332 13.21
04/28 17:00 3.76 338 13.29
04/28 18:00 3.89 378 12.81
04/28 19:00 3.97 404 13.21
04/28 20:00 4.21 488 12.81
04/28 21:00 5.37 1002 12.81
04/28 22:00 7.60 2164 12.73
04/28 23:00 9.04 2999 12.73
Data processed at Wed 29Apr2026 04:14 GMT

NOTICE: If you are parsing this page

Please convert to using our Data API. Starting early 2026 we will be migrating to: https://water.usace.army.mil with modern pages rendered in JavaScript. When this migration completes you will no longer be able to scrape this page! CWMSDataAPI (CDA)

Timeseries IDs (TSIDs)

TSIDs used from left to right in the data table
SAVO.Stage.Inst.1Hour.0.Ccp-Rev
SAVO.Flow.Inst.1Hour.0.Ccp-Rev
SAVO.Volt-Battery Load.Inst.1Hour.0.Ccp-Rev

                            

All information presented herein is the property of the government of the United States of America and may be revised or deleted at any time without prior notice. Dissemination of this information without the expressed written consent of the Public Affairs Office, Tulsa District U.S. Army Corps of Engineers is strictly prohibited. These data are gathered electronically and, as presented, have NOT undergone any form of quality control. These data are NOT guaranteed to be valid or correct.